Lamnalco Phaethon — UBGH4 — position and weather

sailwx.info

Track history (hours):
 
Tides and Currents Weather Stations Pressure Air Temp Water Temp Dewpoint Dewpoint Depression Visibility Wind Speed Wind Dir Waves Ship Positions

Lamnalco Phaethon

Last reported at 2017-Nov-11 09:07 UTC. Time now 2017-Nov-20 00:27 UTC.
Position N 44°39' E 037°38'.
Warning: this ship's position is 8 days out of date.

Length 42 m; draft 2.4 m.

Type: Pollution control. MMSI: 273350820.

Date/timePositionNaut miles runAvg speedWind from/ knotsBaromVisibWave heightAir tempDewpointWater temp
2017-Nov-11 09:07N 44°39' E 037°38'1 3.4
2017-Nov-11 08:55N 44°39' E 037°37'6 0.1
2017-Nov-09 10:52N 44°37' E 037°45'3 6.3
2017-Nov-09 10:28N 44°36' E 037°48'3 6.4
2017-Nov-09 09:58N 44°36' E 037°53'2 3.3
2017-Nov-09 09:28N 44°36' E 037°55'0 0.0
2017-Nov-09 08:58N 44°36' E 037°55'0 0.0
2017-Nov-09 08:28N 44°36' E 037°55'0 0.0
2017-Nov-09 07:58N 44°36' E 037°55'0 0.0
2017-Nov-09 07:28N 44°36' E 037°55'0 0.1
2017-Nov-09 06:55N 44°36' E 037°55'3 5.6
2017-Nov-09 06:28N 44°36' E 037°51'4 7.5
2017-Nov-09 05:58N 44°37' E 037°46'5 0.3
2017-Nov-08 13:49N 44°38' E 037°40'0 0.0
2017-Nov-07 10:07N 44°39' E 037°40'1 0.0
2017-Nov-05 07:37N 44°37' E 037°41'  
Track history (hours):
 
Tides and Currents Weather Stations Pressure Air Temp Water Temp Dewpoint Dewpoint Depression Visibility Wind Speed Wind Dir Waves Ship Positions

Lamnalco Phaethon

Last reported at 2017-Nov-11 09:07 UTC. Time now 2017-Nov-20 00:27 UTC.
Position N 44°39' E 037°38'.
Warning: this ship's position is 8 days out of date.

Length 42 m; draft 2.4 m.

Type: Pollution control. MMSI: 273350820.

Date/timePositionNaut miles runAvg speedWind from/ knotsBaromVisibWave heightAir tempDewpointWater temp
2017-Nov-11 09:07N 44°39' E 037°38'1 3.4
2017-Nov-11 08:55N 44°39' E 037°37'6 0.1
2017-Nov-09 10:52N 44°37' E 037°45'3 6.3
2017-Nov-09 10:28N 44°36' E 037°48'3 6.4
2017-Nov-09 09:58N 44°36' E 037°53'2 3.3
2017-Nov-09 09:28N 44°36' E 037°55'0 0.0
2017-Nov-09 08:58N 44°36' E 037°55'0 0.0
2017-Nov-09 08:28N 44°36' E 037°55'0 0.0
2017-Nov-09 07:58N 44°36' E 037°55'0 0.0
2017-Nov-09 07:28N 44°36' E 037°55'0 0.1
2017-Nov-09 06:55N 44°36' E 037°55'3 5.6
2017-Nov-09 06:28N 44°36' E 037°51'4 7.5
2017-Nov-09 05:58N 44°37' E 037°46'5 0.3
2017-Nov-08 13:49N 44°38' E 037°40'0 0.0
2017-Nov-07 10:07N 44°39' E 037°40'1 0.0
2017-Nov-05 07:37N 44°37' E 037°41'  

Dump ship's entire track history